createdAt,value
2023-05-03T00:00:56.083Z,102639.81
2023-05-03T00:03:57.745Z,102638.97
2023-05-03T00:06:59.273Z,102640.78
2023-05-03T00:10:01.286Z,102632.00
2023-05-03T00:13:03.082Z,102638.25
2023-05-03T00:16:04.932Z,102636.53
2023-05-03T00:19:07.806Z,102637.47
2023-05-03T00:22:12.804Z,102633.16
2023-05-03T00:25:17.349Z,102639.38
2023-05-03T00:28:18.876Z,102634.19
2023-05-03T00:31:20.667Z,102636.00
2023-05-03T00:34:22.310Z,102634.34
2023-05-03T00:37:24.945Z,102637.06
2023-05-03T00:40:26.490Z,102635.38
2023-05-03T00:43:28.104Z,102642.53
2023-05-03T00:46:29.772Z,102637.38
2023-05-03T00:49:31.635Z,102635.69
2023-05-03T00:52:35.005Z,102642.81
2023-05-03T00:55:36.649Z,102642.88
2023-05-03T00:58:40.534Z,102642.94
2023-05-03T01:01:42.329Z,102642.97
2023-05-03T01:04:44.556Z,102629.81
2023-05-03T01:07:55.011Z,102643.03
2023-05-03T01:11:06.693Z,102636.91
2023-05-03T01:14:36.350Z,102641.34
2023-05-03T01:18:11.021Z,102643.16
2023-05-03T01:21:16.567Z,102646.72
2023-05-03T01:24:22.098Z,102642.31
2023-05-03T01:27:23.943Z,102646.78
2023-05-03T01:30:27.709Z,102647.66
2023-05-03T01:33:47.262Z,102647.66
2023-05-03T01:36:49.866Z,102648.56
2023-05-03T01:40:01.731Z,102648.56
2023-05-03T01:43:05.066Z,102650.34
2023-05-03T01:46:06.947Z,102656.50
2023-05-03T01:49:08.738Z,102657.44
2023-05-03T01:52:10.345Z,102645.97
2023-05-03T01:55:11.975Z,102654.78
2023-05-03T01:58:13.514Z,102656.50
2023-05-03T02:01:15.088Z,102658.25
2023-05-03T02:04:16.713Z,102649.41
2023-05-03T02:07:18.290Z,102659.06
2023-05-03T02:10:19.885Z,102656.38
2023-05-03T02:13:21.459Z,102655.50
2023-05-03T02:16:23.136Z,102657.25
2023-05-03T02:19:25.079Z,102659.00
2023-05-03T02:22:26.774Z,102668.66
2023-05-03T02:25:28.329Z,102661.63
2023-05-03T02:28:29.888Z,102670.38
2023-05-03T02:31:31.576Z,102663.28
2023-05-03T02:34:33.445Z,102665.06
2023-05-03T02:37:35.009Z,102677.34
2023-05-03T02:40:36.623Z,102679.06
2023-05-03T02:43:38.297Z,102674.66
2023-05-03T02:46:41.998Z,102667.59
2023-05-03T02:49:43.617Z,102665.81
2023-05-03T02:52:45.187Z,102664.03
2023-05-03T02:55:46.717Z,102661.41
2023-05-03T02:58:48.339Z,102661.41
2023-05-03T03:01:49.923Z,102657.00
2023-05-03T03:04:51.552Z,102650.81
2023-05-03T03:07:53.136Z,102658.72
2023-05-03T03:10:54.900Z,102647.25
2023-05-03T03:13:56.495Z,102645.44
2023-05-03T03:16:58.322Z,102650.72
2023-05-03T03:20:02.246Z,102654.22
2023-05-03T03:23:04.160Z,102654.16
2023-05-03T03:26:06.324Z,102647.09
2023-05-03T03:29:10.161Z,102650.59
2023-05-03T03:32:11.735Z,102650.59
2023-05-03T03:35:13.628Z,102637.38
2023-05-03T03:38:15.146Z,102644.44
2023-05-03T03:41:16.825Z,102639.13
2023-05-03T03:44:18.420Z,102644.38
2023-05-03T03:47:20.217Z,102643.50
2023-05-03T03:50:22.062Z,102653.13
2023-05-03T03:53:23.927Z,102646.03
2023-05-03T03:56:25.837Z,102653.06
2023-05-03T03:59:27.961Z,102653.88
2023-05-03T04:02:29.646Z,102652.13
2023-05-03T04:05:31.540Z,102651.19
2023-05-03T04:08:33.109Z,102653.78
2023-05-03T04:11:35.061Z,102658.19
2023-05-03T04:14:36.689Z,102656.44
2023-05-03T04:17:38.331Z,102654.63
2023-05-03T04:20:39.973Z,102658.97
2023-05-03T04:23:41.565Z,102658.97
2023-05-03T04:26:43.863Z,102654.56
2023-05-03T04:29:45.518Z,102657.22
2023-05-03T04:32:47.351Z,102651.03
2023-05-03T04:35:51.229Z,102651.91
2023-05-03T04:38:52.859Z,102660.72
2023-05-03T04:41:54.470Z,102658.06
2023-05-03T04:44:56.052Z,102658.88
2023-05-03T04:47:57.715Z,102665.00
2023-05-03T04:50:59.503Z,102661.44
2023-05-03T04:54:02.054Z,102662.25
2023-05-03T04:57:03.678Z,102673.69
2023-05-03T05:00:10.986Z,102669.22
2023-05-03T05:03:12.984Z,102670.00
2023-05-03T05:06:14.869Z,102677.00
2023-05-03T05:09:24.103Z,102681.31
2023-05-03T05:12:26.106Z,102689.16
2023-05-03T05:15:27.682Z,102696.16
2023-05-03T05:18:29.318Z,102696.09
2023-05-03T05:21:31.496Z,102698.69
2023-05-03T05:24:33.058Z,102702.16
2023-05-03T05:27:35.169Z,102699.44
2023-05-03T05:30:36.824Z,102695.81
2023-05-03T05:33:38.427Z,102713.38
2023-05-03T05:36:40.068Z,102710.66
2023-05-03T05:39:41.633Z,102709.72
2023-05-03T05:42:43.428Z,102715.81
2023-05-03T05:45:45.016Z,102725.47
2023-05-03T05:48:46.756Z,102721.81
2023-05-03T05:51:48.295Z,102730.53
2023-05-03T05:54:49.867Z,102721.66
2023-05-03T05:57:51.439Z,102735.69
2023-05-03T06:00:53.052Z,102737.38
2023-05-03T06:03:56.017Z,102728.50
2023-05-03T06:06:57.625Z,102730.16
2023-05-03T06:09:59.277Z,102734.44
2023-05-03T06:13:01.038Z,102737.00
2023-05-03T06:16:03.552Z,102734.22
2023-05-03T06:19:05.164Z,102748.22
2023-05-03T06:22:07.356Z,102736.63
2023-05-03T06:25:10.840Z,102739.13
2023-05-03T06:28:12.500Z,102740.66
2023-05-03T06:31:14.084Z,102741.28
2023-05-03T06:34:20.350Z,102740.91
2023-05-03T06:37:22.926Z,102742.25
2023-05-03T06:40:26.020Z,102741.06
2023-05-03T06:43:27.589Z,102739.84
2023-05-03T06:46:29.192Z,102747.53
2023-05-03T06:49:30.751Z,102743.72
2023-05-03T06:52:32.328Z,102748.91
2023-05-03T06:55:33.861Z,102742.63
2023-05-03T06:58:35.481Z,102743.69
2023-05-03T07:01:37.118Z,102740.41
2023-05-03T07:04:39.798Z,102742.53
2023-05-03T07:07:41.332Z,102740.41
2023-05-03T07:10:42.896Z,102738.06
2023-05-03T07:13:44.474Z,102736.16
2023-05-03T07:16:46.128Z,102735.69
2023-05-03T07:19:51.007Z,102743.34
2023-05-03T07:22:52.913Z,102741.88
2023-05-03T07:25:55.848Z,102741.34
2023-05-03T07:28:57.562Z,102738.28
2023-05-03T07:32:00.073Z,102742.25
2023-05-03T07:35:02.252Z,102752.28
2023-05-03T07:38:04.717Z,102750.88
2023-05-03T07:41:08.699Z,102749.28
2023-05-03T07:44:10.368Z,102760.00
2023-05-03T07:47:12.016Z,102756.44
2023-05-03T07:50:13.559Z,102756.44
2023-05-03T07:53:15.155Z,102762.56
2023-05-03T07:56:16.676Z,102758.03
2023-05-03T07:59:18.262Z,102750.81
2023-05-03T08:02:20.025Z,102752.50
2023-05-03T08:05:23.328Z,102749.78
2023-05-03T08:08:25.101Z,102748.00
2023-05-03T08:11:29.721Z,102748.81
2023-05-03T08:14:31.328Z,102740.00
2023-05-03T08:17:33.372Z,102746.28
2023-05-03T08:20:37.010Z,102759.53
2023-05-03T08:23:38.602Z,102755.09
2023-05-03T08:26:41.099Z,102750.56
2023-05-03T08:29:42.666Z,102745.13
2023-05-03T08:32:44.323Z,102752.03
2023-05-03T08:38:47.477Z,102754.25
2023-05-03T08:41:49.164Z,102753.13
2023-05-03T08:44:51.023Z,102754.72
2023-05-03T08:47:55.719Z,102758.00
2023-05-03T08:50:58.147Z,102760.34
2023-05-03T08:53:59.694Z,102756.56
2023-05-03T08:57:01.580Z,102759.03
2023-05-03T09:00:06.753Z,102759.75
2023-05-03T09:03:08.816Z,102767.63
2023-05-03T09:06:20.574Z,102761.16
2023-05-03T09:09:31.723Z,102758.25
2023-05-03T09:12:41.242Z,102766.09
2023-05-03T09:15:45.297Z,102764.19
2023-05-03T09:18:57.564Z,102759.69
2023-05-03T09:22:07.063Z,102759.66
2023-05-03T09:25:09.475Z,102768.47
2023-05-03T09:28:11.626Z,102766.69
2023-05-03T09:31:13.531Z,102767.63
2023-05-03T09:34:22.671Z,102759.69
2023-05-03T09:37:36.874Z,102764.13
2023-05-03T09:40:46.633Z,102770.44
2023-05-03T09:43:52.755Z,102768.59
2023-05-03T09:47:04.308Z,102768.38
2023-05-03T09:50:06.442Z,102762.84
2023-05-03T09:53:08.378Z,102752.19
2023-05-03T09:56:14.882Z,102754.09
2023-05-03T09:59:17.478Z,102754.97
2023-05-03T10:02:19.448Z,102743.31
2023-05-03T10:05:22.374Z,102742.41
2023-05-03T10:08:30.035Z,102743.97
2023-05-03T10:11:34.546Z,102727.84
2023-05-03T10:14:36.674Z,102740.09
2023-05-03T10:21:00.715Z,102733.16
2023-05-03T10:24:13.224Z,102737.19
2023-05-03T10:27:16.952Z,102751.19
2023-05-03T10:30:33.259Z,102740.53
2023-05-03T10:33:35.454Z,102738.00
2023-05-03T10:36:48.929Z,102746.94
2023-05-03T10:39:57.932Z,102740.88
2023-05-03T10:43:01.296Z,102736.19
2023-05-03T10:46:08.800Z,102736.03
2023-05-03T10:49:28.289Z,102733.94
2023-05-03T10:52:35.887Z,102738.81
2023-05-03T10:55:38.116Z,102733.16
2023-05-03T10:58:44.928Z,102743.78
2023-05-03T11:01:51.133Z,102743.47
2023-05-03T11:04:56.506Z,102745.81
2023-05-03T11:08:22.864Z,102746.22
2023-05-03T11:11:24.537Z,102732.91
2023-05-03T11:14:26.083Z,102730.94
2023-05-03T11:17:29.309Z,102733.25
2023-05-03T11:20:31.181Z,102729.94
2023-05-03T11:23:32.855Z,102727.91
2023-05-03T11:26:40.594Z,102730.34
2023-05-03T11:29:48.203Z,102721.16
2023-05-03T11:32:50.972Z,102729.94
2023-05-03T11:35:56.524Z,102712.97
2023-05-03T11:38:58.081Z,102725.47
2023-05-03T11:42:04.779Z,102712.88
2023-05-03T11:45:07.693Z,102722.03
2023-05-03T11:48:10.651Z,102717.22
2023-05-03T11:51:12.610Z,102718.25
2023-05-03T11:57:22.457Z,102725.41
2023-05-03T12:00:25.539Z,102728.25
2023-05-03T12:03:32.235Z,102728.16
2023-05-03T12:06:36.316Z,102719.13
2023-05-03T12:09:40.773Z,102725.00
2023-05-03T12:12:57.442Z,102718.00
2023-05-03T12:22:26.130Z,102706.19
2023-05-03T12:25:34.037Z,102697.16
2023-05-03T12:28:36.596Z,102693.34
2023-05-03T12:31:39.555Z,102695.50
2023-05-03T12:34:42.536Z,102694.16
2023-05-03T12:37:48.314Z,102695.94
2023-05-03T12:40:51.128Z,102692.94
2023-05-03T12:43:52.782Z,102692.84
2023-05-03T12:46:54.590Z,102695.50
2023-05-03T12:49:59.677Z,102680.56
2023-05-03T12:53:02.521Z,102690.19
2023-05-03T12:56:06.657Z,102681.16
2023-05-03T12:59:39.481Z,102683.09
2023-05-03T13:05:36.201Z,102672.63
2023-05-03T13:11:41.331Z,102663.72
2023-05-03T13:14:43.024Z,102663.09
2023-05-03T13:17:46.786Z,102660.41
2023-05-03T13:20:49.399Z,102659.78
2023-05-03T13:23:50.993Z,102656.34
2023-05-03T13:26:52.544Z,102655.88
2023-05-03T13:29:54.123Z,102647.38
2023-05-03T13:32:55.770Z,102648.31
2023-05-03T13:35:57.476Z,102639.47
2023-05-03T13:38:59.728Z,102643.00
2023-05-03T13:42:01.376Z,102645.97
2023-05-03T13:45:04.825Z,102628.66
2023-05-03T13:48:17.608Z,102624.00
2023-05-03T13:51:20.785Z,102621.59
2023-05-03T13:54:22.387Z,102625.97
2023-05-03T13:57:23.937Z,102614.16
2023-05-03T14:00:25.726Z,102612.94
2023-05-03T14:03:27.425Z,102615.69
2023-05-03T14:06:30.973Z,102614.69
2023-05-03T14:09:39.433Z,102604.53
2023-05-03T14:12:41.800Z,102610.16
2023-05-03T14:15:45.486Z,102604.84
2023-05-03T14:18:49.153Z,102606.59
2023-05-03T14:21:51.572Z,102596.56
2023-05-03T14:24:53.543Z,102605.41
2023-05-03T14:27:56.274Z,102597.13
2023-05-03T14:30:58.045Z,102599.66
2023-05-03T14:34:00.094Z,102586.06
2023-05-03T14:37:01.891Z,102588.44
2023-05-03T14:40:05.785Z,102593.69
2023-05-03T14:43:09.304Z,102584.72
2023-05-03T14:46:11.042Z,102580.75
2023-05-03T14:49:14.361Z,102581.53
2023-05-03T14:52:16.311Z,102581.25
2023-05-03T14:55:17.954Z,102576.06
2023-05-03T14:58:19.551Z,102577.19
2023-05-03T15:01:21.691Z,102570.09
2023-05-03T15:04:23.687Z,102568.28
2023-05-03T15:07:25.299Z,102567.09
2023-05-03T15:10:27.133Z,102564.19
2023-05-03T15:13:28.794Z,102558.97
2023-05-03T15:16:30.537Z,102564.88
2023-05-03T15:19:32.412Z,102563.94
2023-05-03T15:22:35.586Z,102563.75
2023-05-03T15:25:38.381Z,102568.09
2023-05-03T15:28:39.928Z,102564.94
2023-05-03T15:31:42.857Z,102569.09
2023-05-03T15:34:44.512Z,102564.34
2023-05-03T15:37:46.562Z,102562.13
2023-05-03T15:40:48.081Z,102559.50
2023-05-03T15:43:49.726Z,102557.66
2023-05-03T15:46:51.341Z,102555.25
2023-05-03T15:49:53.217Z,102552.66
2023-05-03T15:52:56.752Z,102560.69
2023-05-03T15:55:58.810Z,102553.81
2023-05-03T15:59:00.387Z,102547.56
2023-05-03T16:02:03.303Z,102543.91
2023-05-03T16:05:05.216Z,102545.06
2023-05-03T16:08:08.236Z,102542.78
2023-05-03T16:11:09.831Z,102548.34
2023-05-03T16:14:12.069Z,102536.88
2023-05-03T16:17:13.614Z,102540.66
2023-05-03T16:20:15.274Z,102537.00
2023-05-03T16:23:17.107Z,102540.28
2023-05-03T16:26:19.451Z,102537.38
2023-05-03T16:29:21.797Z,102537.94
2023-05-03T16:32:23.389Z,102540.69
2023-05-03T16:35:25.183Z,102536.41
2023-05-03T16:38:30.548Z,102531.00
2023-05-03T16:41:32.106Z,102523.69
2023-05-03T16:44:33.676Z,102525.03
2023-05-03T16:47:35.666Z,102529.13
2023-05-03T16:50:37.765Z,102518.19
2023-05-03T16:53:39.617Z,102524.84
2023-05-03T16:56:41.226Z,102523.41
2023-05-03T16:59:43.339Z,102513.78
2023-05-03T17:02:45.106Z,102515.75
2023-05-03T17:05:46.859Z,102515.97
2023-05-03T17:08:48.675Z,102519.00
2023-05-03T17:11:50.219Z,102504.91
2023-05-03T17:14:51.868Z,102513.00
2023-05-03T17:17:53.713Z,102509.81
2023-05-03T17:21:01.082Z,102515.50
2023-05-03T17:24:02.920Z,102504.25
2023-05-03T17:27:08.434Z,102517.88
2023-05-03T17:30:10.758Z,102511.09
2023-05-03T17:33:12.410Z,102507.59
2023-05-03T17:36:14.018Z,102504.16
2023-05-03T17:39:15.773Z,102497.22
2023-05-03T17:42:17.498Z,102492.97
2023-05-03T17:45:19.469Z,102501.16
2023-05-03T17:48:21.109Z,102498.81
2023-05-03T17:51:22.808Z,102500.16
2023-05-03T17:54:24.669Z,102491.69
2023-05-03T17:57:26.576Z,102497.22
2023-05-03T18:00:28.110Z,102501.84
2023-05-03T18:03:29.849Z,102500.22
2023-05-03T18:06:32.724Z,102494.22
2023-05-03T18:09:35.002Z,102503.31
2023-05-03T18:12:37.551Z,102501.06
2023-05-03T18:15:41.897Z,102498.66
2023-05-03T18:18:43.811Z,102501.56
2023-05-03T18:21:46.227Z,102500.97
2023-05-03T18:24:54.226Z,102505.63
2023-05-03T18:27:57.344Z,102511.13
2023-05-03T18:31:00.541Z,102506.88
2023-05-03T18:34:03.325Z,102514.22
2023-05-03T18:37:05.458Z,102512.75
2023-05-03T18:40:07.917Z,102527.22
2023-05-03T18:43:10.356Z,102526.59
2023-05-03T18:46:18.068Z,102510.94
2023-05-03T18:49:21.334Z,102514.69
2023-05-03T18:52:23.824Z,102505.25
2023-05-03T18:55:26.903Z,102509.88
2023-05-03T18:58:29.883Z,102508.38
2023-05-03T19:01:31.909Z,102507.56
2023-05-03T19:04:34.081Z,102510.56
2023-05-03T19:07:37.342Z,102510.00
2023-05-03T19:10:39.305Z,102514.75
2023-05-03T19:13:47.520Z,102522.13
2023-05-03T19:16:49.435Z,102513.56
2023-05-03T19:19:51.827Z,102521.72
2023-05-03T19:22:53.448Z,102524.63
2023-05-03T19:25:55.180Z,102511.53
2023-05-03T19:28:56.817Z,102519.66
2023-05-03T19:31:58.606Z,102520.72
2023-05-03T19:35:00.863Z,102522.53
2023-05-03T19:38:02.505Z,102521.75
2023-05-03T19:41:13.863Z,102519.25
2023-05-03T19:44:16.049Z,102517.50
2023-05-03T19:47:17.893Z,102530.81
2023-05-03T19:50:19.499Z,102526.53
2023-05-03T19:53:21.455Z,102527.66
2023-05-03T19:56:23.471Z,102526.97
2023-05-03T19:59:25.015Z,102526.28
2023-05-03T20:02:27.310Z,102517.69
2023-05-03T20:05:29.103Z,102530.22
2023-05-03T20:08:31.161Z,102519.94
2023-05-03T20:11:32.742Z,102521.97
2023-05-03T20:14:35.191Z,102523.00
2023-05-03T20:17:37.002Z,102525.75
2023-05-03T20:20:39.100Z,102529.47
2023-05-03T20:23:40.666Z,102530.50
2023-05-03T20:26:42.579Z,102532.53
2023-05-03T20:29:44.271Z,102532.72
2023-05-03T20:32:45.848Z,102530.16
2023-05-03T20:35:47.431Z,102537.31
2023-05-03T20:38:48.970Z,102540.13
2023-05-03T20:41:50.561Z,102540.16
2023-05-03T20:44:53.014Z,102538.47
2023-05-03T20:47:54.684Z,102534.16
2023-05-03T20:50:58.779Z,102533.44
2023-05-03T20:54:00.791Z,102538.91
2023-05-03T20:57:02.727Z,102530.22
2023-05-03T21:00:04.789Z,102534.03
2023-05-03T21:03:07.764Z,102522.69
2023-05-03T21:06:09.554Z,102522.81
2023-05-03T21:09:11.083Z,102516.78
2023-05-03T21:12:12.706Z,102533.88
2023-05-03T21:15:14.299Z,102525.31
2023-05-03T21:18:15.919Z,102517.41
2023-05-03T21:21:17.512Z,102526.47
2023-05-03T21:24:19.129Z,102520.44
2023-05-03T21:27:22.129Z,102522.34
2023-05-03T21:30:24.050Z,102511.94
2023-05-03T21:33:26.268Z,102512.16
2023-05-03T21:36:27.826Z,102517.59
2023-05-03T21:39:29.608Z,102510.63
2023-05-03T21:42:31.187Z,102512.59
2023-05-03T21:45:32.750Z,102503.84
2023-05-03T21:48:35.399Z,102506.63
2023-05-03T21:51:36.979Z,102502.38
2023-05-03T21:54:38.514Z,102497.22
2023-05-03T21:57:40.176Z,102496.47
2023-05-03T22:00:42.266Z,102491.38
2023-05-03T22:03:44.356Z,102494.19
2023-05-03T22:06:46.136Z,102490.91
2023-05-03T22:09:48.717Z,102493.38
2023-05-03T22:12:50.400Z,102490.94
2023-05-03T22:15:52.064Z,102492.81
2023-05-03T22:18:53.716Z,102480.72
2023-05-03T22:21:55.440Z,102478.25
2023-05-03T22:25:00.356Z,102477.63
2023-05-03T22:28:01.931Z,102478.75
2023-05-03T22:31:03.556Z,102472.78
2023-05-03T22:34:05.456Z,102476.53
2023-05-03T22:37:07.039Z,102475.81
2023-05-03T22:40:09.562Z,102476.88
2023-05-03T22:43:11.138Z,102467.34
2023-05-03T22:46:12.752Z,102471.03
2023-05-03T22:49:14.347Z,102468.56
2023-05-03T22:52:16.108Z,102469.56
2023-05-03T22:55:18.005Z,102467.91
2023-05-03T22:58:19.541Z,102467.16
2023-05-03T23:01:21.204Z,102454.97
2023-05-03T23:04:22.887Z,102460.34
2023-05-03T23:07:24.442Z,102462.25
2023-05-03T23:10:25.985Z,102456.25
2023-05-03T23:13:27.608Z,102464.25
2023-05-03T23:16:29.170Z,102447.59
2023-05-03T23:19:30.794Z,102464.47
2023-05-03T23:22:32.435Z,102460.16
2023-05-03T23:25:34.246Z,102455.78
2023-05-03T23:28:36.459Z,102462.88
2023-05-03T23:31:38.671Z,102459.41
2023-05-03T23:34:40.726Z,102449.88
2023-05-03T23:37:42.255Z,102446.44
2023-05-03T23:40:43.805Z,102449.22
2023-05-03T23:43:45.333Z,102446.69
2023-05-03T23:46:46.850Z,102447.66
2023-05-03T23:49:48.407Z,102437.19
2023-05-03T23:52:49.974Z,102440.84
2023-05-03T23:55:51.667Z,102430.38
2023-05-03T23:58:53.242Z,102434.84
